createdAt,value
2023-04-13T00:00:13.282Z,100.00
2023-04-13T00:02:40.085Z,100.00
2023-04-13T00:05:09.276Z,100.00
2023-04-13T00:07:39.940Z,100.00
2023-04-13T00:10:08.675Z,100.00
2023-04-13T00:12:41.001Z,100.00
2023-04-13T00:15:07.973Z,100.00
2023-04-13T00:17:34.490Z,100.00
2023-04-13T00:20:01.633Z,100.00
2023-04-13T00:22:28.074Z,100.00
2023-04-13T00:24:55.538Z,100.00
2023-04-13T00:27:23.015Z,100.00
2023-04-13T00:29:49.533Z,100.00
2023-04-13T00:32:16.114Z,100.00
2023-04-13T00:34:42.594Z,100.00
2023-04-13T00:37:09.189Z,100.00
2023-04-13T00:39:36.161Z,100.00
2023-04-13T00:42:03.538Z,100.00
2023-04-13T00:44:30.722Z,100.00
2023-04-13T00:46:57.292Z,100.00
2023-04-13T00:49:23.874Z,100.00
2023-04-13T00:51:50.929Z,100.00
2023-04-13T00:54:19.031Z,100.00
2023-04-13T00:56:45.935Z,100.00
2023-04-13T00:59:13.127Z,100.00
2023-04-13T01:01:46.173Z,100.00
2023-04-13T01:04:13.932Z,100.00
2023-04-13T01:06:45.091Z,100.00
2023-04-13T01:09:16.471Z,100.00
2023-04-13T01:11:59.684Z,100.00
2023-04-13T01:14:37.399Z,100.00
2023-04-13T01:17:21.634Z,100.00
2023-04-13T01:20:01.568Z,100.00
2023-04-13T01:22:33.961Z,100.00
2023-04-13T01:25:26.039Z,100.00
2023-04-13T01:28:07.589Z,100.00
2023-04-13T01:30:37.612Z,100.00
2023-04-13T01:33:06.542Z,100.00
2023-04-13T01:35:35.913Z,100.00
2023-04-13T01:38:03.387Z,100.00
2023-04-13T01:40:31.455Z,100.00
2023-04-13T01:42:58.124Z,100.00
2023-04-13T01:45:36.955Z,100.00
2023-04-13T01:48:11.746Z,100.00
2023-04-13T01:50:56.651Z,100.00
2023-04-13T01:53:44.165Z,100.00
2023-04-13T01:56:15.731Z,100.00
2023-04-13T01:58:43.848Z,100.00
2023-04-13T02:01:14.449Z,100.00
2023-04-13T02:03:43.240Z,100.00
2023-04-13T02:06:10.548Z,100.00
2023-04-13T02:08:40.660Z,100.00
2023-04-13T02:11:07.774Z,100.00
2023-04-13T02:13:34.724Z,100.00
2023-04-13T02:16:02.690Z,100.00
2023-04-13T02:18:29.154Z,100.00
2023-04-13T02:21:09.771Z,100.00
2023-04-13T02:23:37.499Z,100.00
2023-04-13T02:26:06.872Z,100.00
2023-04-13T02:28:33.380Z,100.00
2023-04-13T02:31:00.243Z,100.00
2023-04-13T02:33:32.745Z,100.00
2023-04-13T02:36:02.508Z,100.00
2023-04-13T02:38:32.024Z,100.00
2023-04-13T02:41:06.470Z,100.00
2023-04-13T02:43:33.301Z,100.00
2023-04-13T02:46:00.371Z,100.00
2023-04-13T02:48:33.032Z,100.00
2023-04-13T02:51:02.359Z,100.00
2023-04-13T02:53:31.821Z,100.00
2023-04-13T02:56:02.999Z,100.00
2023-04-13T02:58:31.634Z,100.00
2023-04-13T03:01:01.701Z,100.00
2023-04-13T03:03:30.477Z,100.00
2023-04-13T03:05:57.547Z,100.00
2023-04-13T03:08:36.763Z,100.00
2023-04-13T03:11:11.956Z,100.00
2023-04-13T03:13:44.600Z,100.00
2023-04-13T03:16:11.316Z,100.00
2023-04-13T03:18:38.290Z,100.00
2023-04-13T03:21:07.167Z,100.00
2023-04-13T03:23:44.177Z,100.00
2023-04-13T03:26:12.391Z,100.00
2023-04-13T03:28:39.356Z,100.00
2023-04-13T03:31:06.070Z,100.00
2023-04-13T03:33:37.115Z,100.00
2023-04-13T03:36:05.260Z,100.00
2023-04-13T03:38:36.027Z,100.00
2023-04-13T03:41:02.525Z,100.00
2023-04-13T03:43:30.629Z,100.00
2023-04-13T03:46:08.933Z,100.00
2023-04-13T03:48:36.887Z,100.00
2023-04-13T03:51:06.510Z,100.00
2023-04-13T03:53:45.877Z,100.00
2023-04-13T03:56:12.356Z,100.00
2023-04-13T03:58:39.617Z,100.00
2023-04-13T04:01:06.651Z,100.00
2023-04-13T04:03:41.705Z,100.00
2023-04-13T04:06:09.631Z,100.00
2023-04-13T04:08:38.457Z,100.00
2023-04-13T04:11:09.731Z,100.00
2023-04-13T04:13:36.342Z,100.00
2023-04-13T04:16:08.923Z,100.00
2023-04-13T04:18:39.412Z,100.00
2023-04-13T04:21:08.346Z,100.00
2023-04-13T04:23:37.814Z,100.00
2023-04-13T04:26:06.608Z,100.00
2023-04-13T04:28:45.797Z,100.00
2023-04-13T04:31:18.154Z,100.00
2023-04-13T04:33:47.486Z,100.00
2023-04-13T04:36:16.627Z,100.00
2023-04-13T04:38:58.129Z,100.00
2023-04-13T04:41:26.174Z,100.00
2023-04-13T04:44:02.573Z,100.00
2023-04-13T04:46:38.468Z,100.00
2023-04-13T04:49:08.715Z,100.00
2023-04-13T04:51:36.974Z,100.00
2023-04-13T04:54:03.910Z,100.00
2023-04-13T04:56:30.764Z,100.00
2023-04-13T04:58:57.540Z,100.00
2023-04-13T05:01:34.962Z,100.00
2023-04-13T05:04:08.120Z,100.00
2023-04-13T05:06:41.481Z,100.00
2023-04-13T05:09:11.621Z,100.00
2023-04-13T05:11:43.506Z,100.00
2023-04-13T05:14:14.200Z,100.00
2023-04-13T05:16:40.920Z,100.00
2023-04-13T05:19:20.764Z,100.00
2023-04-13T05:21:49.868Z,100.00
2023-04-13T05:24:16.927Z,100.00
2023-04-13T05:26:43.583Z,100.00
2023-04-13T05:29:12.982Z,100.00
2023-04-13T05:31:46.854Z,100.00
2023-04-13T05:34:14.662Z,100.00
2023-04-13T05:37:01.867Z,100.00
2023-04-13T05:39:29.219Z,100.00
2023-04-13T05:41:56.471Z,100.00
2023-04-13T05:44:25.869Z,100.00
2023-04-13T05:46:53.432Z,100.00
2023-04-13T05:49:20.513Z,100.00
2023-04-13T05:51:48.561Z,100.00
2023-04-13T05:54:17.671Z,100.00
2023-04-13T05:56:48.557Z,100.00
2023-04-13T05:59:21.943Z,100.00
2023-04-13T06:01:52.296Z,100.00
2023-04-13T06:04:20.994Z,100.00
2023-04-13T06:06:52.787Z,100.00
2023-04-13T06:09:20.252Z,100.00
2023-04-13T06:11:47.595Z,100.00
2023-04-13T06:14:15.575Z,100.00
2023-04-13T06:16:46.599Z,100.00
2023-04-13T06:19:16.720Z,100.00
2023-04-13T06:21:53.293Z,100.00
2023-04-13T06:24:22.001Z,100.00
2023-04-13T06:26:49.303Z,100.00
2023-04-13T06:29:24.575Z,100.00
2023-04-13T06:32:04.665Z,100.00
2023-04-13T06:34:31.800Z,100.00
2023-04-13T06:37:01.187Z,100.00
2023-04-13T06:39:41.437Z,100.00
2023-04-13T06:42:10.102Z,100.00
2023-04-13T06:44:54.274Z,100.00
2023-04-13T06:47:22.910Z,100.00
2023-04-13T06:49:50.256Z,100.00
2023-04-13T06:52:17.467Z,100.00
2023-04-13T06:54:46.973Z,100.00
2023-04-13T06:57:26.565Z,100.00
2023-04-13T06:59:53.667Z,100.00
2023-04-13T07:02:22.109Z,100.00
2023-04-13T07:04:49.841Z,100.00
2023-04-13T07:07:17.196Z,100.00
2023-04-13T07:09:45.122Z,100.00
2023-04-13T07:12:12.688Z,100.00
2023-04-13T07:14:41.181Z,100.00
2023-04-13T07:17:13.164Z,100.00
2023-04-13T07:19:46.214Z,100.00
2023-04-13T07:22:14.419Z,100.00
2023-04-13T07:24:49.426Z,100.00
2023-04-13T07:27:19.644Z,100.00
2023-04-13T07:29:51.099Z,100.00
2023-04-13T07:32:24.469Z,100.00
2023-04-13T07:35:01.454Z,100.00
2023-04-13T07:37:33.670Z,100.00
2023-04-13T07:40:01.167Z,100.00
2023-04-13T07:42:34.502Z,100.00
2023-04-13T07:45:02.143Z,100.00
2023-04-13T07:47:33.681Z,100.00
2023-04-13T07:50:07.634Z,100.00
2023-04-13T07:52:35.814Z,100.00
2023-04-13T07:55:03.899Z,100.00
2023-04-13T07:57:34.939Z,100.00
2023-04-13T08:00:06.385Z,100.00
2023-04-13T08:02:41.462Z,100.00
2023-04-13T08:05:13.212Z,100.00
2023-04-13T08:07:42.546Z,100.00
2023-04-13T08:10:09.927Z,100.00
2023-04-13T08:12:37.078Z,100.00
2023-04-13T08:15:05.971Z,100.00
2023-04-13T08:17:34.144Z,100.00
2023-04-13T08:20:01.490Z,100.00
2023-04-13T08:22:31.413Z,100.00
2023-04-13T08:24:59.377Z,100.00
2023-04-13T08:27:28.458Z,100.00
2023-04-13T08:30:04.044Z,100.00
2023-04-13T08:32:42.339Z,100.00
2023-04-13T08:35:10.709Z,100.00
2023-04-13T08:37:39.906Z,100.00
2023-04-13T08:40:19.654Z,100.00
2023-04-13T08:42:49.056Z,100.00
2023-04-13T08:45:19.402Z,100.00
2023-04-13T08:47:49.934Z,100.00
2023-04-13T08:50:22.474Z,100.00
2023-04-13T08:52:57.503Z,100.00
2023-04-13T08:55:26.698Z,100.00
2023-04-13T08:57:58.564Z,100.00
2023-04-13T09:00:27.347Z,100.00
2023-04-13T09:03:06.054Z,100.00
2023-04-13T09:05:42.349Z,98.63
2023-04-13T09:08:13.907Z,100.00
2023-04-13T09:10:44.427Z,99.07
2023-04-13T09:13:12.392Z,100.00
2023-04-13T09:15:40.770Z,87.00
2023-04-13T09:18:28.012Z,87.80
2023-04-13T09:21:02.413Z,84.24
2023-04-13T09:23:29.759Z,89.73
2023-04-13T09:26:08.113Z,79.17
2023-04-13T09:28:48.639Z,79.13
2023-04-13T09:31:16.974Z,90.70
2023-04-13T09:33:50.572Z,77.32
2023-04-13T09:36:21.176Z,70.93
2023-04-13T09:38:58.447Z,76.32
2023-04-13T09:41:40.952Z,91.39
2023-04-13T09:44:19.141Z,88.33
2023-04-13T09:47:06.501Z,86.97
2023-04-13T09:50:01.691Z,69.82
2023-04-13T09:52:46.637Z,82.35
2023-04-13T09:55:19.431Z,65.88
2023-04-13T09:57:46.899Z,82.78
2023-04-13T10:00:23.256Z,71.52
2023-04-13T10:02:52.234Z,70.51
2023-04-13T10:05:20.261Z,76.35
2023-04-13T10:07:48.987Z,88.52
2023-04-13T10:10:19.736Z,73.39
2023-04-13T10:12:56.425Z,69.82
2023-04-13T10:16:05.181Z,74.71
2023-04-13T10:19:00.770Z,77.32
2023-04-13T10:21:39.686Z,65.94
2023-04-13T10:24:11.680Z,74.22
2023-04-13T10:26:41.190Z,69.58
2023-04-13T10:29:10.360Z,72.20
2023-04-13T10:31:39.926Z,72.35
2023-04-13T10:34:13.980Z,69.57
2023-04-13T10:36:43.423Z,60.73
2023-04-13T10:39:11.871Z,61.22
2023-04-13T10:41:40.025Z,60.68
2023-04-13T10:44:08.518Z,60.09
2023-04-13T10:46:36.565Z,63.33
2023-04-13T10:49:07.606Z,61.99
2023-04-13T10:51:47.450Z,57.70
2023-04-13T10:54:14.937Z,63.14
2023-04-13T10:56:41.650Z,62.01
2023-04-13T10:59:08.169Z,62.33
2023-04-13T11:01:35.745Z,62.87
2023-04-13T11:04:09.826Z,64.25
2023-04-13T11:06:40.552Z,65.72
2023-04-13T11:09:07.944Z,68.51
2023-04-13T11:11:36.895Z,62.92
2023-04-13T11:14:03.848Z,69.33
2023-04-13T11:16:30.789Z,76.21
2023-04-13T11:19:04.373Z,68.56
2023-04-13T11:21:35.304Z,72.35
2023-04-13T11:24:01.991Z,80.00
2023-04-13T11:26:36.235Z,76.71
2023-04-13T11:29:04.461Z,74.20
2023-04-13T11:31:42.305Z,74.24
2023-04-13T11:34:09.844Z,80.97
2023-04-13T11:36:38.891Z,72.67
2023-04-13T11:39:10.771Z,66.13
2023-04-13T11:41:43.763Z,70.32
2023-04-13T11:44:13.354Z,77.50
2023-04-13T11:46:40.062Z,63.00
2023-04-13T11:49:07.275Z,74.97
2023-04-13T11:51:35.184Z,63.53
2023-04-13T11:54:01.914Z,68.95
2023-04-13T11:56:28.756Z,77.47
2023-04-13T11:58:55.334Z,64.42
2023-04-13T12:01:26.637Z,71.42
2023-04-13T12:04:14.723Z,70.15
2023-04-13T12:06:45.869Z,68.54
2023-04-13T12:09:16.775Z,76.42
2023-04-13T12:11:50.143Z,74.76
2023-04-13T12:14:49.314Z,76.23
2023-04-13T12:19:46.263Z,69.74
2023-04-13T12:22:14.641Z,66.27
2023-04-13T12:24:42.737Z,68.58
2023-04-13T12:27:18.513Z,76.10
2023-04-13T12:29:45.967Z,76.60
2023-04-13T12:32:14.862Z,79.59
2023-04-13T12:34:42.975Z,69.39
2023-04-13T12:37:11.260Z,69.54
2023-04-13T12:39:37.978Z,71.37
2023-04-13T12:42:05.115Z,77.67
2023-04-13T12:44:33.747Z,79.63
2023-04-13T12:47:01.115Z,79.99
2023-04-13T12:49:27.658Z,82.20
2023-04-13T12:51:54.165Z,80.38
2023-04-13T12:54:20.692Z,77.48
2023-04-13T12:56:47.488Z,85.34
2023-04-13T12:59:13.958Z,85.63
2023-04-13T13:01:40.712Z,85.19
2023-04-13T13:04:07.382Z,85.75
2023-04-13T13:06:34.234Z,80.55
2023-04-13T13:09:01.239Z,75.66
2023-04-13T13:11:28.297Z,81.58
2023-04-13T13:13:55.087Z,83.55
2023-04-13T13:16:22.061Z,83.23
2023-04-13T13:18:51.326Z,81.58
2023-04-13T13:21:19.404Z,83.07
2023-04-13T13:23:46.269Z,75.27
2023-04-13T13:26:23.719Z,72.81
2023-04-13T13:28:52.109Z,67.14
2023-04-13T13:31:19.032Z,69.77
2023-04-13T13:33:45.637Z,76.59
2023-04-13T13:36:13.916Z,73.61
2023-04-13T13:38:41.212Z,74.29
2023-04-13T13:41:07.729Z,77.00
2023-04-13T13:43:34.298Z,83.88
2023-04-13T13:46:00.792Z,70.05
2023-04-13T13:48:27.767Z,67.78
2023-04-13T13:51:04.442Z,75.56
2023-04-13T13:53:32.932Z,67.65
2023-04-13T13:55:59.436Z,69.28
2023-04-13T13:58:25.892Z,69.01
2023-04-13T14:00:52.397Z,68.40
2023-04-13T14:03:19.096Z,67.57
2023-04-13T14:05:45.922Z,78.47
2023-04-13T14:08:12.396Z,78.48
2023-04-13T14:10:39.205Z,76.28
2023-04-13T14:13:06.052Z,71.88
2023-04-13T14:15:33.148Z,69.96
2023-04-13T14:18:09.697Z,66.54
2023-04-13T14:20:40.813Z,62.19
2023-04-13T14:23:08.932Z,59.08
2023-04-13T14:25:36.593Z,63.17
2023-04-13T14:28:03.236Z,63.58
2023-04-13T14:30:30.206Z,70.93
2023-04-13T14:32:58.659Z,69.27
2023-04-13T14:35:25.386Z,67.81
2023-04-13T14:37:54.811Z,74.00
2023-04-13T14:40:23.229Z,74.52
2023-04-13T14:42:53.195Z,67.54
2023-04-13T14:45:21.026Z,71.87
2023-04-13T14:47:47.626Z,78.30
2023-04-13T14:50:15.428Z,75.34
2023-04-13T14:52:46.294Z,78.70
2023-04-13T14:55:13.775Z,84.63
2023-04-13T14:57:41.489Z,88.76
2023-04-13T15:00:15.768Z,86.50
2023-04-13T15:02:42.789Z,93.17
2023-04-13T15:05:09.643Z,100.00
2023-04-13T15:07:36.168Z,99.43
2023-04-13T15:10:04.411Z,99.76
2023-04-13T15:12:30.986Z,100.00
2023-04-13T15:14:57.474Z,100.00
2023-04-13T15:17:24.024Z,100.00
2023-04-13T15:19:50.618Z,96.79
2023-04-13T15:22:17.112Z,81.84
2023-04-13T15:24:43.761Z,85.70
2023-04-13T15:27:10.327Z,89.23
2023-04-13T15:29:36.817Z,94.54
2023-04-13T15:32:03.397Z,88.63
2023-04-13T15:34:30.612Z,89.21
2023-04-13T15:36:59.198Z,88.13
2023-04-13T15:39:25.871Z,89.85
2023-04-13T15:41:54.149Z,98.90
2023-04-13T15:44:20.605Z,99.35
2023-04-13T15:46:48.040Z,93.56
2023-04-13T15:49:14.666Z,95.73
2023-04-13T15:51:41.317Z,90.61
2023-04-13T15:54:07.816Z,86.56
2023-04-13T15:56:34.260Z,90.29
2023-04-13T15:59:00.976Z,96.89
2023-04-13T16:01:27.678Z,96.10
2023-04-13T16:03:54.868Z,95.10
2023-04-13T16:06:21.480Z,89.33
2023-04-13T16:08:49.151Z,89.71
2023-04-13T16:11:15.766Z,94.79
2023-04-13T16:13:49.314Z,84.87
2023-04-13T16:16:16.824Z,90.30
2023-04-13T16:18:43.377Z,87.30
2023-04-13T16:21:11.054Z,84.26
2023-04-13T16:23:38.152Z,86.83
2023-04-13T16:26:05.062Z,90.89
2023-04-13T16:28:31.573Z,87.48
2023-04-13T16:30:58.185Z,88.04
2023-04-13T16:33:24.764Z,89.45
2023-04-13T16:35:51.440Z,91.71
2023-04-13T16:38:17.960Z,91.30
2023-04-13T16:40:44.433Z,89.64
2023-04-13T16:43:10.994Z,90.42
2023-04-13T16:45:37.710Z,87.10
2023-04-13T16:48:05.108Z,89.93
2023-04-13T16:50:32.451Z,90.49
2023-04-13T16:52:59.532Z,87.47
2023-04-13T16:55:28.251Z,87.65
2023-04-13T16:57:55.293Z,89.68
2023-04-13T17:00:22.134Z,89.04
2023-04-13T17:02:48.917Z,86.71
2023-04-13T17:05:16.014Z,87.32
2023-04-13T17:07:43.970Z,93.69
2023-04-13T17:10:12.833Z,92.70
2023-04-13T17:12:39.710Z,89.58
2023-04-13T17:15:06.796Z,87.72
2023-04-13T17:17:34.866Z,87.41
2023-04-13T17:20:01.684Z,85.31
2023-04-13T17:22:28.256Z,89.71
2023-04-13T17:24:55.364Z,92.44
2023-04-13T17:27:21.883Z,87.76
2023-04-13T17:29:49.664Z,92.12
2023-04-13T17:32:16.489Z,94.29
2023-04-13T17:34:44.534Z,93.18
2023-04-13T17:37:11.741Z,94.07
2023-04-13T17:39:42.072Z,93.46
2023-04-13T17:42:09.405Z,94.62
2023-04-13T17:44:35.993Z,92.38
2023-04-13T17:47:02.485Z,93.93
2023-04-13T17:49:29.121Z,96.73
2023-04-13T17:51:55.775Z,98.74
2023-04-13T17:54:22.193Z,97.62
2023-04-13T17:56:48.646Z,100.00
2023-04-13T17:59:15.779Z,100.00
2023-04-13T18:01:45.379Z,100.00
2023-04-13T18:04:13.475Z,100.00
2023-04-13T18:06:40.936Z,100.00
2023-04-13T18:09:08.854Z,100.00
2023-04-13T18:11:38.143Z,100.00
2023-04-13T18:14:04.887Z,100.00
2023-04-13T18:16:32.129Z,100.00
2023-04-13T18:18:58.835Z,100.00
2023-04-13T18:21:25.931Z,100.00
2023-04-13T18:23:55.445Z,100.00
2023-04-13T18:26:22.676Z,100.00
2023-04-13T18:28:49.242Z,100.00
2023-04-13T18:31:15.836Z,100.00
2023-04-13T18:33:42.333Z,100.00
2023-04-13T18:36:08.824Z,100.00
2023-04-13T18:38:35.852Z,100.00
2023-04-13T18:41:02.351Z,100.00
2023-04-13T18:43:28.770Z,100.00
2023-04-13T18:45:55.201Z,100.00
2023-04-13T18:48:22.690Z,100.00
2023-04-13T18:50:49.096Z,100.00
2023-04-13T18:53:15.944Z,100.00
2023-04-13T18:55:48.637Z,100.00
2023-04-13T18:58:15.252Z,100.00
2023-04-13T19:00:41.701Z,100.00
2023-04-13T19:03:08.430Z,100.00
2023-04-13T19:05:35.600Z,100.00
2023-04-13T19:08:04.036Z,100.00
2023-04-13T19:10:31.502Z,100.00
2023-04-13T19:12:58.102Z,100.00
2023-04-13T19:15:25.641Z,100.00
2023-04-13T19:17:52.696Z,100.00
2023-04-13T19:20:22.856Z,100.00
2023-04-13T19:22:49.404Z,100.00
2023-04-13T19:25:16.070Z,100.00
2023-04-13T19:27:46.538Z,100.00
2023-04-13T19:30:14.794Z,100.00
2023-04-13T19:32:44.842Z,100.00
2023-04-13T19:35:12.520Z,100.00
2023-04-13T19:37:39.855Z,100.00
2023-04-13T19:40:09.965Z,100.00
2023-04-13T19:42:36.876Z,100.00
2023-04-13T19:45:03.932Z,100.00
2023-04-13T19:47:30.414Z,100.00
2023-04-13T19:49:57.230Z,100.00
2023-04-13T19:52:25.001Z,100.00
2023-04-13T19:54:51.634Z,100.00
2023-04-13T19:57:21.372Z,100.00
2023-04-13T19:59:48.187Z,100.00
2023-04-13T20:02:14.817Z,100.00
2023-04-13T20:04:41.411Z,100.00
2023-04-13T20:07:07.948Z,100.00
2023-04-13T20:09:34.449Z,100.00
2023-04-13T20:12:01.471Z,100.00
2023-04-13T20:14:27.931Z,100.00
2023-04-13T20:16:54.446Z,100.00
2023-04-13T20:19:22.847Z,100.00
2023-04-13T20:21:51.144Z,100.00
2023-04-13T20:24:18.591Z,100.00
2023-04-13T20:26:45.526Z,100.00
2023-04-13T20:29:12.324Z,100.00
2023-04-13T20:31:38.897Z,100.00
2023-04-13T20:34:07.476Z,100.00
2023-04-13T20:36:34.026Z,100.00
2023-04-13T20:39:00.537Z,100.00
2023-04-13T20:41:31.998Z,100.00
2023-04-13T20:43:59.352Z,100.00
2023-04-13T20:46:34.620Z,100.00
2023-04-13T20:49:02.669Z,100.00
2023-04-13T20:51:30.974Z,100.00
2023-04-13T20:53:58.361Z,100.00
2023-04-13T20:56:25.484Z,100.00
2023-04-13T20:58:57.175Z,100.00
2023-04-13T21:01:26.974Z,100.00
2023-04-13T21:03:53.710Z,100.00
2023-04-13T21:06:22.776Z,100.00
2023-04-13T21:08:49.508Z,100.00
2023-04-13T21:11:18.746Z,100.00
2023-04-13T21:13:45.280Z,100.00
2023-04-13T21:16:12.012Z,100.00
2023-04-13T21:18:38.933Z,100.00
2023-04-13T21:21:06.581Z,100.00
2023-04-13T21:23:33.482Z,100.00
2023-04-13T21:25:59.925Z,100.00
2023-04-13T21:28:26.406Z,100.00
2023-04-13T21:30:52.865Z,100.00
2023-04-13T21:33:19.426Z,100.00
2023-04-13T21:35:45.938Z,100.00
2023-04-13T21:38:12.537Z,100.00
2023-04-13T21:40:39.040Z,100.00
2023-04-13T21:43:05.665Z,100.00
2023-04-13T21:45:33.083Z,100.00
2023-04-13T21:47:59.596Z,100.00
2023-04-13T21:50:26.169Z,100.00
2023-04-13T21:52:52.644Z,100.00
2023-04-13T21:55:19.141Z,100.00
2023-04-13T21:57:49.525Z,100.00
2023-04-13T22:00:19.600Z,100.00
2023-04-13T22:02:46.624Z,100.00
2023-04-13T22:05:13.397Z,100.00
2023-04-13T22:07:43.335Z,100.00
2023-04-13T22:10:11.102Z,100.00
2023-04-13T22:12:37.882Z,100.00
2023-04-13T22:15:04.807Z,100.00
2023-04-13T22:17:31.379Z,100.00
2023-04-13T22:19:57.928Z,100.00
2023-04-13T22:22:24.397Z,100.00
2023-04-13T22:24:52.395Z,100.00
2023-04-13T22:27:18.933Z,100.00
2023-04-13T22:29:47.060Z,100.00
2023-04-13T22:32:14.075Z,100.00
2023-04-13T22:34:40.541Z,100.00
2023-04-13T22:37:07.087Z,100.00
2023-04-13T22:39:33.908Z,100.00
2023-04-13T22:42:00.588Z,100.00
2023-04-13T22:44:33.089Z,100.00
2023-04-13T22:47:02.918Z,100.00
2023-04-13T22:49:29.938Z,100.00
2023-04-13T22:51:56.826Z,100.00
2023-04-13T22:54:23.983Z,100.00
2023-04-13T22:56:50.445Z,100.00
2023-04-13T22:59:16.948Z,100.00
2023-04-13T23:01:43.682Z,100.00
2023-04-13T23:04:11.132Z,100.00
2023-04-13T23:06:39.173Z,100.00
2023-04-13T23:09:05.698Z,100.00
2023-04-13T23:11:32.223Z,100.00
2023-04-13T23:14:00.540Z,100.00
2023-04-13T23:16:28.549Z,100.00
2023-04-13T23:18:56.425Z,100.00
2023-04-13T23:21:22.946Z,100.00
2023-04-13T23:23:49.484Z,100.00
2023-04-13T23:26:16.100Z,100.00
2023-04-13T23:28:42.718Z,100.00
2023-04-13T23:31:09.340Z,100.00
2023-04-13T23:33:36.005Z,100.00
2023-04-13T23:36:03.527Z,100.00
2023-04-13T23:38:31.384Z,100.00
2023-04-13T23:40:58.125Z,100.00
2023-04-13T23:43:25.652Z,100.00
2023-04-13T23:45:53.153Z,100.00
2023-04-13T23:48:21.209Z,100.00
2023-04-13T23:50:48.236Z,100.00
2023-04-13T23:53:15.227Z,100.00
2023-04-13T23:55:41.753Z,100.00
2023-04-13T23:58:08.219Z,100.00
